Time;durP1;ratioP1;P1;durP2;ratioP2;P2;SDS_P1;SDS_P2;PMS_P1;PMS_P2;Temp;Humidity;BMP_temperature;BMP_pressure;BME280_temperature;BME280_humidity;BME280_pressure;Samples;Min_cycle;Max_cycle;Signal;HPM_P1;HPM_P2
2023/11/14 00:31:53;;;;;;;23.13;4.10;;;;;;;;;;5816003;23;20289;-78
2023/11/14 00:34:32;;;;;;;25.93;4.60;;;;;;;;;;4993896;28;20045;-79
2023/11/14 00:37:20;;;;;;;31.53;5.63;;;;;;;;;;5010590;28;20086;-79
2023/11/14 00:40:11;;;;;;;30.13;5.07;;;;;;;;;;4999571;28;20152;-78
2023/11/14 00:42:40;;;;;;;36.83;6.10;;;;;;;;;;4994479;28;20062;-77
2023/11/14 00:45:10;;;;;;;28.87;4.47;;;;;;;;;;4992522;28;20111;-80
2023/11/14 00:47:44;;;;;;;17.50;3.70;;;;;;;;;;4994955;28;20019;-79
2023/11/14 00:50:15;;;;;;;28.73;3.47;;;;;;;;;;4992747;28;20037;-79
2023/11/14 00:52:46;;;;;;;20.70;4.73;;;;;;;;;;4990740;28;20252;-80
2023/11/14 00:55:14;;;;;;;29.63;3.40;;;;;;;;;;4990257;28;20051;-80
2023/11/14 00:57:41;;;;;;;31.53;4.63;;;;;;;;;;4994574;28;20042;-79
2023/11/14 01:03:24;;;;;;;33.43;4.70;;;;;;;;;;4992069;28;20042;-79
2023/11/14 01:06:13;;;;;;;27.87;3.53;;;;;;;;;;4993122;28;20059;-79
2023/11/14 01:08:39;;;;;;;21.47;4.20;;;;;;;;;;5007594;28;20047;-80
2023/11/14 01:11:26;;;;;;;18.13;4.03;;;;;;;;;;4992242;28;20082;-80
2023/11/14 01:14:02;;;;;;;30.00;5.33;;;;;;;;;;4990215;28;20053;-79
2023/11/14 01:16:28;;;;;;;30.83;5.20;;;;;;;;;;4993713;28;20027;-79
2023/11/14 01:18:57;;;;;;;30.80;4.60;;;;;;;;;;4990228;28;20224;-79
2023/11/14 01:21:25;;;;;;;25.50;4.53;;;;;;;;;;4987811;28;20018;-80
2023/11/14 01:24:11;;;;;;;18.10;3.60;;;;;;;;;;4988720;28;20053;-80
2023/11/14 01:26:45;;;;;;;31.03;5.13;;;;;;;;;;4990513;28;20043;-80
2023/11/14 01:29:30;;;;;;;;;;;;;;;;;;;;;
2023/11/14 01:32:01;;;;;;;26.40;5.07;;;;;;;;;;4991622;28;20038;-78
2023/11/14 01:34:36;;;;;;;20.77;3.90;;;;;;;;;;4985582;28;20042;-79
2023/11/14 01:37:06;;;;;;;27.77;4.73;;;;;;;;;;4992524;28;20111;-79
2023/11/14 01:39:52;;;;;;;29.00;6.50;;;;;;;;;;4989090;28;20209;-79
2023/11/14 01:45:10;;;;;;;24.37;4.27;;;;;;;;;;4990118;28;20046;-79
2023/11/14 01:47:36;;;;;;;27.20;5.83;;;;;;;;;;4990622;28;20044;-78
2023/11/14 01:50:08;;;;;;;28.13;6.23;;;;;;;;;;4990941;28;20030;-80
2023/11/14 01:52:41;;;;;;;35.22;5.35;;;;;;;;;;4991549;28;20239;-80
2023/11/14 01:55:25;;;;;;;19.47;4.07;;;;;;;;;;4992107;28;20023;-80
2023/11/14 01:57:59;;;;;;;25.17;4.83;;;;;;;;;;4987360;28;20042;-80
2023/11/14 02:00:47;;;;;;;37.10;6.47;;;;;;;;;;4989938;28;20023;-79
2023/11/14 02:03:13;;;;;;;30.87;4.67;;;;;;;;;;5007563;28;20027;-79
2023/11/14 02:05:49;;;;;;;22.23;4.07;;;;;;;;;;4989988;28;20058;-79
2023/11/14 02:08:16;;;;;;;25.57;5.30;;;;;;;;;;4990025;28;20225;-78
2023/11/14 02:10:44;;;;;;;29.50;5.30;;;;;;;;;;4991091;28;20027;-81
2023/11/14 02:13:13;;;;;;;28.20;4.73;;;;;;;;;;4992029;28;20011;-78
2023/11/14 02:15:39;;;;;;;31.70;4.67;;;;;;;;;;4990474;28;20015;-79
2023/11/14 02:18:14;;;;;;;25.70;4.10;;;;;;;;;;4991951;28;20023;-79
2023/11/14 02:23:40;;;;;;;23.37;4.00;;;;;;;;;;4983775;28;20083;-80
2023/11/14 02:26:12;;;;;;;26.23;4.63;;;;;;;;;;4987127;28;20015;-79
2023/11/14 02:28:40;;;;;;;;;;;;;;;;;;4988282;28;20019;-79
2023/11/14 02:31:07;;;;;;;27.67;3.97;;;;;;;;;;4991624;28;19929;-79
2023/11/14 02:33:37;;;;;;;26.40;3.77;;;;;;;;;;4991482;28;20093;-78
2023/11/14 02:36:08;;;;;;;21.80;3.80;;;;;;;;;;4990971;28;20027;-80
2023/11/14 02:38:42;;;;;;;26.73;5.43;;;;;;;;;;4990503;28;20030;-78
2023/11/14 02:41:28;;;;;;;27.83;4.00;;;;;;;;;;4988721;28;20082;-79
2023/11/14 02:44:09;;;;;;;27.60;4.60;;;;;;;;;;4994268;28;20123;-80
2023/11/14 02:46:45;;;;;;;26.97;4.70;;;;;;;;;;4990695;28;20095;-79
2023/11/14 02:49:32;;;;;;;26.93;4.70;;;;;;;;;;4991626;28;20022;-80
2023/11/14 02:52:03;;;;;;;26.43;4.77;;;;;;;;;;4972539;28;20059;-79
2023/11/14 02:54:29;;;;;;;20.33;3.75;;;;;;;;;;5007312;28;20030;-80
2023/11/14 02:56:55;;;;;;;35.77;5.23;;;;;;;;;;4990617;28;20027;-80
2023/11/14 02:59:34;;;;;;;26.13;4.90;;;;;;;;;;4989005;28;20011;-79
2023/11/14 03:02:00;;;;;;;31.27;5.10;;;;;;;;;;5008247;28;20066;-81
2023/11/14 03:04:34;;;;;;;26.73;5.13;;;;;;;;;;4990726;28;20034;-80
2023/11/14 03:07:08;;;;;;;33.40;5.57;;;;;;;;;;4991047;28;20023;-79
2023/11/14 03:09:34;;;;;;;26.80;4.27;;;;;;;;;;4988862;28;20038;-80
2023/11/14 03:12:01;;;;;;;27.53;4.80;;;;;;;;;;4992388;28;20077;-79
2023/11/14 03:14:30;;;;;;;26.67;4.03;;;;;;;;;;4991512;28;20062;-78
2023/11/14 03:16:58;;;;;;;26.97;4.47;;;;;;;;;;5006938;28;20015;-80
2023/11/14 03:19:24;;;;;;;18.10;3.87;;;;;;;;;;4992347;28;20840;-79
2023/11/14 03:21:52;;;;;;;24.20;4.33;;;;;;;;;;4990330;28;20018;-79
2023/11/14 03:24:54;;;;;;;;;;;;;;;;;;;;;
2023/11/14 03:27:42;;;;;;;21.57;5.83;;;;;;;;;;4992213;28;20059;-80
2023/11/14 03:30:33;;;;;;;23.87;4.67;;;;;;;;;;4990630;28;20058;-79
2023/11/14 03:32:59;;;;;;;32.43;4.50;;;;;;;;;;4991705;28;20026;-78
2023/11/14 03:35:25;;;;;;;22.20;4.13;;;;;;;;;;4990667;28;20023;-79
2023/11/14 03:37:51;;;;;;;24.57;4.73;;;;;;;;;;5005582;28;20023;-80
2023/11/14 03:40:19;;;;;;;29.47;3.73;;;;;;;;;;5006803;28;20061;-79
2023/11/14 03:42:48;;;;;;;31.57;4.57;;;;;;;;;;4991359;28;20015;-79
2023/11/14 03:45:21;;;;;;;27.10;4.30;;;;;;;;;;4991585;28;20049;-79
2023/11/14 03:47:56;;;;;;;36.70;5.80;;;;;;;;;;5010250;28;20104;-79
2023/11/14 03:50:38;;;;;;;25.43;3.83;;;;;;;;;;5011836;28;20027;-79
2023/11/14 03:53:06;;;;;;;20.30;4.03;;;;;;;;;;4994440;28;20038;-80
2023/11/14 03:55:45;;;;;;;;;;;;;;;;;;;;;
2023/11/14 03:58:13;;;;;;;34.20;5.23;;;;;;;;;;4996947;28;20043;-78
2023/11/14 04:00:42;;;;;;;25.53;4.23;;;;;;;;;;4995112;28;20045;-80
2023/11/14 04:03:13;;;;;;;25.33;5.47;;;;;;;;;;4996799;28;20082;-78
2023/11/14 04:05:39;;;;;;;28.13;3.97;;;;;;;;;;4995147;28;20037;-78
2023/11/14 04:08:05;;;;;;;28.57;5.53;;;;;;;;;;4995227;28;20031;-78
2023/11/14 04:10:34;;;;;;;22.80;4.40;;;;;;;;;;4994240;28;20019;-80
2023/11/14 04:13:06;;;;;;;22.70;3.77;;;;;;;;;;4990902;28;20042;-78
2023/11/14 04:15:34;;;;;;;23.27;5.13;;;;;;;;;;4995735;28;20142;-79
2023/11/14 04:18:00;;;;;;;22.57;5.10;;;;;;;;;;4990315;28;20015;-77
2023/11/14 04:20:28;;;;;;;32.43;5.70;;;;;;;;;;4993716;28;20042;-79
2023/11/14 04:22:58;;;;;;;24.40;4.47;;;;;;;;;;4995662;28;20035;-78
2023/11/14 04:25:41;;;;;;;31.60;5.47;;;;;;;;;;4995843;28;20110;-80
2023/11/14 04:28:14;;;;;;;26.90;4.10;;;;;;;;;;4993484;28;20027;-79
2023/11/14 04:30:40;;;;;;;17.50;3.47;;;;;;;;;;4992537;28;20031;-79
2023/11/14 04:33:12;;;;;;;18.83;4.20;;;;;;;;;;4993874;28;20043;-80
2023/11/14 04:35:45;;;;;;;23.60;3.83;;;;;;;;;;4994153;28;20018;-78
2023/11/14 04:38:13;;;;;;;28.53;4.57;;;;;;;;;;4993467;28;20038;-79
2023/11/14 04:40:49;;;;;;;;;;;;;;;;;;;;;
2023/11/14 04:43:16;;;;;;;20.20;3.80;;;;;;;;;;4995675;28;20018;-79
2023/11/14 04:45:45;;;;;;;27.07;4.73;;;;;;;;;;4983279;28;20035;-80
2023/11/14 04:48:14;;;;;;;28.03;5.93;;;;;;;;;;4990086;28;20015;-80
2023/11/14 04:50:42;;;;;;;21.07;4.37;;;;;;;;;;4999636;28;20046;-81
2023/11/14 04:53:08;;;;;;;23.90;4.53;;;;;;;;;;4997581;28;20022;-81
2023/11/14 04:55:54;;;;;;;18.57;3.83;;;;;;;;;;4997629;28;20018;-81
2023/11/14 04:58:24;;;;;;;22.40;4.63;;;;;;;;;;4999009;28;20039;-80
2023/11/14 05:00:54;;;;;;;20.97;4.77;;;;;;;;;;4999258;28;20015;-80
2023/11/14 05:03:20;;;;;;;33.90;5.17;;;;;;;;;;4999732;28;20042;-77
2023/11/14 05:05:49;;;;;;;30.93;5.33;;;;;;;;;;4999023;28;20031;-81
2023/11/14 05:08:32;;;;;;;24.63;4.37;;;;;;;;;;4998685;28;20067;-80
2023/11/14 05:11:04;;;;;;;22.07;4.60;;;;;;;;;;4993924;28;20050;-80
2023/11/14 05:13:37;;;;;;;21.47;4.47;;;;;;;;;;4988665;28;20031;-82
2023/11/14 05:16:12;;;;;;;29.93;4.80;;;;;;;;;;4998843;28;20010;-78
2023/11/14 05:18:38;;;;;;;19.73;4.77;;;;;;;;;;4999626;28;20026;-78
2023/11/14 05:21:07;;;;;;;24.47;4.70;;;;;;;;;;4998969;28;20031;-80
2023/11/14 05:23:36;;;;;;;27.83;4.73;;;;;;;;;;4990866;28;20003;-80
2023/11/14 05:26:05;;;;;;;26.13;3.97;;;;;;;;;;4995764;28;20007;-79
2023/11/14 05:28:36;;;;;;;26.40;4.80;;;;;;;;;;4998842;28;20010;-78
2023/11/14 05:31:02;;;;;;;25.30;5.13;;;;;;;;;;4996691;28;20011;-80
2023/11/14 05:33:49;;;;;;;27.30;3.90;;;;;;;;;;4994397;28;20023;-80
2023/11/14 05:36:23;;;;;;;27.23;4.43;;;;;;;;;;4993489;28;20038;-79
2023/11/14 05:38:56;;;;;;;14.87;3.93;;;;;;;;;;5002056;28;20023;-80
2023/11/14 05:41:27;;;;;;;27.83;4.13;;;;;;;;;;4992767;28;20019;-80
2023/11/14 05:44:03;;;;;;;18.03;3.77;;;;;;;;;;4994445;28;20034;-79
2023/11/14 05:46:29;;;;;;;23.37;4.47;;;;;;;;;;4985176;28;20034;-79
2023/11/14 05:48:58;;;;;;;23.20;4.37;;;;;;;;;;4994468;28;20062;-78
2023/11/14 05:51:26;;;;;;;25.30;4.80;;;;;;;;;;4998114;28;20467;-80
2023/11/14 05:53:54;;;;;;;28.33;3.90;;;;;;;;;;4987241;28;20011;-80
2023/11/14 05:56:23;;;;;;;21.17;3.87;;;;;;;;;;4997281;28;20013;-78
2023/11/14 05:58:49;;;;;;;21.43;4.73;;;;;;;;;;4995430;28;21422;-78
2023/11/14 06:01:33;;;;;;;25.63;4.10;;;;;;;;;;4987607;28;20011;-78
2023/11/14 06:03:59;;;;;;;27.70;4.70;;;;;;;;;;4998146;28;20102;-79
2023/11/14 06:06:27;;;;;;;22.73;4.50;;;;;;;;;;4998143;28;20027;-78
2023/11/14 06:08:53;;;;;;;25.53;5.30;;;;;;;;;;4998056;28;20034;-80
2023/11/14 06:11:19;;;;;;;21.37;4.13;;;;;;;;;;4995965;28;20022;-79
2023/11/14 06:13:48;;;;;;;22.33;4.27;;;;;;;;;;4998010;28;20038;-79
2023/11/14 06:16:19;;;;;;;24.63;4.83;;;;;;;;;;4996619;28;20082;-79
2023/11/14 06:18:47;;;;;;;20.87;3.50;;;;;;;;;;4996067;28;20031;-80
2023/11/14 06:21:13;;;;;;;26.87;4.80;;;;;;;;;;5006446;28;20019;-79
2023/11/14 06:23:44;;;;;;;28.90;4.90;;;;;;;;;;4991970;28;20045;-79
2023/11/14 06:26:10;;;;;;;22.27;4.23;;;;;;;;;;4990231;28;20066;-79
2023/11/14 06:28:39;;;;;;;26.13;5.80;;;;;;;;;;4992803;28;20026;-79
2023/11/14 06:31:07;;;;;;;23.53;4.30;;;;;;;;;;4987662;28;20034;-79
2023/11/14 06:33:33;;;;;;;23.57;4.63;;;;;;;;;;4991394;28;20026;-79
2023/11/14 06:35:59;;;;;;;34.30;5.63;;;;;;;;;;4992267;28;20031;-80
2023/11/14 06:38:27;;;;;;;31.73;5.13;;;;;;;;;;4990671;28;20034;-78
2023/11/14 06:40:54;;;;;;;30.03;4.43;;;;;;;;;;4991002;28;20031;-79
2023/11/14 06:43:25;;;;;;;20.73;4.23;;;;;;;;;;4993272;28;20047;-81
2023/11/14 06:45:54;;;;;;;29.07;5.03;;;;;;;;;;4993302;28;20031;-79
2023/11/14 06:48:20;;;;;;;22.03;4.07;;;;;;;;;;4987992;28;20023;-79
2023/11/14 06:50:51;;;;;;;24.43;4.37;;;;;;;;;;4993157;28;20019;-79
2023/11/14 06:53:21;;;;;;;23.80;4.50;;;;;;;;;;4988304;28;20023;-80
2023/11/14 06:55:47;;;;;;;31.00;3.33;;;;;;;;;;4987660;28;20023;-79
2023/11/14 06:58:15;;;;;;;27.70;4.17;;;;;;;;;;4992570;28;20027;-80
2023/11/14 07:00:58;;;;;;;19.93;5.20;;;;;;;;;;4990444;28;20038;-80
2023/11/14 07:03:32;;;;;;;24.97;4.23;;;;;;;;;;4991403;28;20023;-79
2023/11/14 07:05:58;;;;;;;22.30;4.63;;;;;;;;;;5009342;28;20027;-80
2023/11/14 07:08:29;;;;;;;31.57;4.77;;;;;;;;;;4992754;28;20046;-79
2023/11/14 07:10:55;;;;;;;24.77;4.30;;;;;;;;;;4986558;28;20039;-80
2023/11/14 07:13:24;;;;;;;24.03;3.77;;;;;;;;;;4990142;28;20316;-80
2023/11/14 07:15:50;;;;;;;32.37;5.00;;;;;;;;;;4990353;28;20042;-79
2023/11/14 07:18:16;;;;;;;31.60;5.47;;;;;;;;;;4989931;28;20015;-80
2023/11/14 07:20:47;;;;;;;21.77;4.20;;;;;;;;;;4989744;28;20030;-80
2023/11/14 07:23:13;;;;;;;30.40;4.53;;;;;;;;;;4990747;28;20019;-79
2023/11/14 07:25:43;;;;;;;23.60;4.83;;;;;;;;;;4994391;28;20027;-80
2023/11/14 07:28:17;;;;;;;18.33;4.03;;;;;;;;;;4993839;28;20078;-81
2023/11/14 07:30:43;;;;;;;26.87;4.90;;;;;;;;;;5011016;28;20043;-80
2023/11/14 07:33:13;;;;;;;22.70;5.00;;;;;;;;;;4994523;28;20034;-79
2023/11/14 07:35:40;;;;;;;24.03;5.20;;;;;;;;;;4993649;28;20049;-79
2023/11/14 07:38:11;;;;;;;22.40;4.07;;;;;;;;;;4991567;28;20042;-80
2023/11/14 07:40:39;;;;;;;21.53;4.07;;;;;;;;;;4993141;28;20063;-80
2023/11/14 07:43:13;;;;;;;19.10;3.53;;;;;;;;;;4995068;28;20038;-79
2023/11/14 07:45:40;;;;;;;24.07;4.93;;;;;;;;;;4993980;28;20038;-79
2023/11/14 07:48:07;;;;;;;19.77;3.17;;;;;;;;;;4991411;28;20010;-80
2023/11/14 07:50:33;;;;;;;22.07;3.70;;;;;;;;;;4993453;28;20094;-78
2023/11/14 07:53:17;;;;;;;25.83;4.63;;;;;;;;;;4994390;28;20029;-78
2023/11/14 07:55:51;;;;;;;22.37;3.83;;;;;;;;;;4994936;28;20065;-80
2023/11/14 07:58:20;;;;;;;20.07;3.73;;;;;;;;;;5010316;28;20051;-79
2023/11/14 08:00:46;;;;;;;22.00;3.87;;;;;;;;;;4993451;28;20033;-76
2023/11/14 08:03:12;;;;;;;26.30;4.20;;;;;;;;;;4992860;28;20015;-79
2023/11/14 08:05:40;;;;;;;23.03;3.87;;;;;;;;;;4994540;28;20047;-78
2023/11/14 08:08:14;;;;;;;19.07;3.87;;;;;;;;;;4988711;28;20035;-79
2023/11/14 08:10:40;;;;;;;20.37;2.97;;;;;;;;;;5011785;28;20026;-78
2023/11/14 08:13:07;;;;;;;22.57;4.00;;;;;;;;;;4994821;28;20015;-78
2023/11/14 08:15:36;;;;;;;18.30;3.53;;;;;;;;;;4993858;28;20023;-79
2023/11/14 08:18:04;;;;;;;18.77;3.03;;;;;;;;;;4991746;28;20019;-80
2023/11/14 08:20:30;;;;;;;18.07;3.77;;;;;;;;;;4991882;28;20098;-78
2023/11/14 08:22:58;;;;;;;15.47;3.67;;;;;;;;;;4995231;28;20033;-80
2023/11/14 08:25:25;;;;;;;21.93;4.30;;;;;;;;;;4992312;28;20047;-78
2023/11/14 08:27:55;;;;;;;22.13;4.60;;;;;;;;;;4992439;28;20030;-80
2023/11/14 08:30:28;;;;;;;16.87;3.43;;;;;;;;;;4993009;28;20179;-78
2023/11/14 08:32:58;;;;;;;20.73;3.30;;;;;;;;;;4992704;28;20148;-79
2023/11/14 08:35:26;;;;;;;27.07;4.23;;;;;;;;;;4994744;28;20026;-78
2023/11/14 08:37:56;;;;;;;16.30;3.20;;;;;;;;;;4992586;28;20081;-78
2023/11/14 08:40:22;;;;;;;18.43;4.50;;;;;;;;;;4991148;28;20015;-78
2023/11/14 08:42:51;;;;;;;14.97;3.17;;;;;;;;;;4994857;28;20031;-79
2023/11/14 08:45:18;;;;;;;21.47;3.53;;;;;;;;;;4993564;28;20023;-78
2023/11/14 08:47:44;;;;;;;18.17;2.43;;;;;;;;;;4993200;28;20078;-79
2023/11/14 08:50:12;;;;;;;19.63;3.07;;;;;;;;;;4995879;28;20075;-79
2023/11/14 08:52:41;;;;;;;23.33;3.20;;;;;;;;;;4993803;28;20027;-79
2023/11/14 08:55:24;;;;;;;19.17;3.17;;;;;;;;;;4992931;28;20050;-79
2023/11/14 08:57:50;;;;;;;17.47;3.90;;;;;;;;;;4995910;28;20023;-80
2023/11/14 09:00:18;;;;;;;17.43;3.20;;;;;;;;;;4990762;28;20035;-80
2023/11/14 09:02:54;;;;;;;22.13;4.33;;;;;;;;;;4996538;28;20050;-78
2023/11/14 09:05:20;;;;;;;21.70;3.97;;;;;;;;;;5104687;23;20059;-79
2023/11/14 09:07:48;;;;;;;17.07;3.17;;;;;;;;;;4976151;28;20019;-77
2023/11/14 09:10:14;;;;;;;20.70;4.07;;;;;;;;;;4986862;28;20039;-76
2023/11/14 09:12:41;;;;;;;19.73;4.00;;;;;;;;;;4973084;28;20058;-78
2023/11/14 09:15:13;;;;;;;17.20;3.60;;;;;;;;;;4988361;28;20004;-77
2023/11/14 09:17:41;;;;;;;32.50;4.90;;;;;;;;;;4988555;28;20023;-77
2023/11/14 09:22:38;;;;;;;19.83;3.20;;;;;;;;;;4989882;28;20105;-78
2023/11/14 09:25:11;;;;;;;14.73;3.23;;;;;;;;;;4990493;28;20027;-79
2023/11/14 09:27:37;;;;;;;;;;;;;;;;;;4994808;28;20010;-77
2023/11/14 09:30:08;;;;;;;16.67;3.63;;;;;;;;;;4988656;28;19944;-78
2023/11/14 09:32:40;;;;;;;14.83;3.17;;;;;;;;;;4988685;28;20031;-78
2023/11/14 09:35:11;;;;;;;23.98;3.13;;;;;;;;;;4989417;28;20033;-79
2023/11/14 09:37:37;;;;;;;17.27;3.77;;;;;;;;;;4990577;28;20030;-78
2023/11/14 09:40:24;;;;;;;18.30;3.40;;;;;;;;;;4990951;28;20089;-78
2023/11/14 09:42:59;;;;;;;21.17;3.27;;;;;;;;;;4985347;28;20055;-76
2023/11/14 09:45:28;;;;;;;15.47;3.53;;;;;;;;;;4992583;28;20042;-77
2023/11/14 09:48:22;;;;;;;;;;;;;;;;;;;;;
2023/11/14 11:12:55;;;;;;;19.42;3.75;;;;;;;;;;4562642;23;20539;-75
2023/11/14 11:15:27;;;;;;;14.70;3.20;;;;;;;;;;4999546;28;20035;-77
2023/11/14 11:18:03;;;;;;;19.63;3.60;;;;;;;;;;5000910;28;20013;-78
2023/11/14 11:20:31;;;;;;;14.60;2.77;;;;;;;;;;4995152;28;20044;-79
2023/11/14 11:23:15;;;;;;;9.07;2.43;;;;;;;;;;5107761;23;20054;-78
2023/11/14 11:25:48;;;;;;;9.53;2.70;;;;;;;;;;4982658;28;20034;-79
2023/11/14 11:28:39;;;;;;;13.77;2.20;;;;;;;;;;4985168;28;20014;-80
2023/11/14 11:31:06;;;;;;;13.67;2.37;;;;;;;;;;4983882;28;20023;-77
2023/11/14 11:33:36;;;;;;;13.47;2.93;;;;;;;;;;5057924;22;20030;-77
2023/11/14 11:36:21;;;;;;;12.07;2.17;;;;;;;;;;4982471;28;20011;-78
2023/11/14 11:38:53;;;;;;;13.87;2.10;;;;;;;;;;5032617;23;20035;-77
2023/11/14 11:41:25;;;;;;;;;;;;;;;;;;5011506;28;20018;-76
2023/11/14 11:44:12;;;;;;;12.87;2.17;;;;;;;;;;5216312;23;19917;-78
2023/11/14 11:46:42;;;;;;;8.97;1.80;;;;;;;;;;4998367;28;20015;-81
2023/11/14 11:49:14;;;;;;;16.33;2.93;;;;;;;;;;5015547;23;20031;-80
2023/11/14 13:37:25;;;;;;;28.97;5.30;;;;;;;;;;4993712;28;20031;-77
2023/11/14 13:39:52;;;;;;;22.33;5.70;;;;;;;;;;5006756;28;20037;-77
2023/11/14 13:42:18;;;;;;;30.07;5.07;;;;;;;;;;4991850;28;20030;-79
2023/11/14 13:44:49;;;;;;;22.57;4.60;;;;;;;;;;4992949;28;20109;-78
2023/11/14 13:47:15;;;;;;;21.03;4.20;;;;;;;;;;4990499;28;20023;-78
2023/11/14 13:49:44;;;;;;;28.70;5.17;;;;;;;;;;4992840;28;20019;-77
2023/11/14 13:52:10;;;;;;;26.50;5.73;;;;;;;;;;5008817;28;20090;-80
2023/11/14 13:54:36;;;;;;;26.33;5.40;;;;;;;;;;5007486;28;20030;-79
2023/11/14 13:57:04;;;;;;;24.30;4.70;;;;;;;;;;4993364;28;20118;-77
2023/11/14 13:59:30;;;;;;;30.37;5.27;;;;;;;;;;4997763;28;20033;-79
2023/11/14 14:01:59;;;;;;;22.30;4.70;;;;;;;;;;5009306;28;20149;-77
2023/11/14 14:04:25;;;;;;;28.77;4.77;;;;;;;;;;4995675;28;20051;-77
2023/11/14 14:06:51;;;;;;;27.50;3.57;;;;;;;;;;4993752;28;20131;-77
2023/11/14 14:09:20;;;;;;;27.63;4.20;;;;;;;;;;5009585;28;20026;-78
2023/11/14 14:11:46;;;;;;;32.40;5.50;;;;;;;;;;4993723;28;20049;-77
2023/11/14 14:14:16;;;;;;;26.27;4.23;;;;;;;;;;4994547;28;20025;-78
2023/11/14 14:16:42;;;;;;;22.00;4.17;;;;;;;;;;5009517;28;20023;-78
2023/11/14 14:19:11;;;;;;;26.03;4.33;;;;;;;;;;4994421;28;20035;-77
2023/11/14 14:21:37;;;;;;;16.37;3.27;;;;;;;;;;5009725;28;20095;-77
2023/11/14 14:24:06;;;;;;;26.70;4.63;;;;;;;;;;5009576;28;20046;-77
2023/11/14 14:26:33;;;;;;;26.23;5.20;;;;;;;;;;4992656;28;20041;-77
2023/11/14 14:28:59;;;;;;;26.07;5.00;;;;;;;;;;5006468;28;20042;-78
2023/11/14 14:31:26;;;;;;;21.17;5.27;;;;;;;;;;4993097;28;20055;-78
2023/11/14 14:33:52;;;;;;;24.20;4.10;;;;;;;;;;5009992;28;20038;-78
2023/11/14 15:07:09;;;;;;;;;;;;;;;;;;;;;
2023/11/14 16:18:54;;;;;;;6.70;2.10;;;;;;;;;;4973209;28;20048;-76
2023/11/14 16:21:31;;;;;;;7.27;2.03;;;;;;;;;;5004419;28;20031;-77
2023/11/14 16:24:00;;;;;;;5.30;2.17;;;;;;;;;;5005422;28;20062;-77
2023/11/14 16:26:28;;;;;;;9.73;2.23;;;;;;;;;;5006215;28;20107;-78
2023/11/14 16:28:57;;;;;;;6.03;1.83;;;;;;;;;;4988428;28;20046;-77
2023/11/14 16:31:23;;;;;;;10.90;2.13;;;;;;;;;;5007411;28;20103;-77
2023/11/14 16:33:52;;;;;;;7.03;1.80;;;;;;;;;;4972875;28;20019;-78
2023/11/14 16:36:25;;;;;;;6.10;1.50;;;;;;;;;;4974915;28;20047;-76
2023/11/14 16:38:51;;;;;;;5.63;2.30;;;;;;;;;;5006613;28;20078;-78
2023/11/14 16:41:17;;;;;;;5.07;1.77;;;;;;;;;;5007972;28;20106;-76
2023/11/14 16:43:51;;;;;;;6.00;2.47;;;;;;;;;;5010356;28;20059;-75
2023/11/14 16:46:20;;;;;;;6.23;2.20;;;;;;;;;;4998518;28;20024;-84
2023/11/14 16:48:46;;;;;;;9.27;2.50;;;;;;;;;;4979997;28;20023;-79
2023/11/14 16:51:21;;;;;;;9.57;2.60;;;;;;;;;;5012203;28;20027;-78
2023/11/14 16:53:47;;;;;;;12.30;2.27;;;;;;;;;;4979043;28;20039;-81
2023/11/14 16:56:14;;;;;;;13.40;2.60;;;;;;;;;;5010602;28;20058;-83
2023/11/14 16:58:40;;;;;;;9.40;2.60;;;;;;;;;;4980388;28;20047;-83
2023/11/14 17:01:09;;;;;;;5.83;2.60;;;;;;;;;;4980636;28;20083;-76
2023/11/14 17:03:35;;;;;;;7.07;3.00;;;;;;;;;;5011563;28;20051;-83
2023/11/14 17:06:03;;;;;;;9.53;3.40;;;;;;;;;;4976170;28;20034;-83
2023/11/14 17:08:29;;;;;;;9.00;3.33;;;;;;;;;;5010023;28;20026;-80
2023/11/14 17:10:56;;;;;;;14.40;2.93;;;;;;;;;;5012744;28;20034;-77
2023/11/14 17:13:22;;;;;;;8.23;3.47;;;;;;;;;;5012589;28;20012;-79
2023/11/14 17:15:50;;;;;;;11.03;3.23;;;;;;;;;;4980190;28;20027;-81
2023/11/14 17:18:19;;;;;;;7.43;3.27;;;;;;;;;;5010045;28;20023;-78
2023/11/14 17:20:45;;;;;;;13.77;3.63;;;;;;;;;;5012541;28;20012;-80
2023/11/14 17:23:13;;;;;;;8.10;2.53;;;;;;;;;;5011783;28;20082;-82
2023/11/14 17:25:39;;;;;;;7.53;2.50;;;;;;;;;;5012827;28;20102;-78
2023/11/14 17:28:05;;;;;;;9.37;2.90;;;;;;;;;;4979328;28;20027;-83
2023/11/14 17:30:33;;;;;;;12.07;3.70;;;;;;;;;;4979003;28;20030;-80
2023/11/14 17:33:02;;;;;;;6.13;2.83;;;;;;;;;;4970348;28;20004;-79
2023/11/14 17:35:28;;;;;;;13.73;3.43;;;;;;;;;;5000442;28;20062;-81
2023/11/14 17:37:54;;;;;;;13.10;3.30;;;;;;;;;;4974171;28;20037;-75
2023/11/14 17:40:20;;;;;;;8.00;3.37;;;;;;;;;;4979918;28;20030;-77
2023/11/14 17:42:46;;;;;;;7.67;3.00;;;;;;;;;;5008726;28;20023;-77
2023/11/14 17:45:12;;;;;;;11.37;3.17;;;;;;;;;;4976749;28;20051;-75
2023/11/14 17:47:38;;;;;;;9.23;3.40;;;;;;;;;;4979062;28;20077;-79
2023/11/14 17:50:08;;;;;;;7.57;4.10;;;;;;;;;;4979969;28;20019;-79
2023/11/14 17:52:34;;;;;;;11.70;3.77;;;;;;;;;;5012573;28;20015;-78
2023/11/14 17:55:02;;;;;;;8.53;3.40;;;;;;;;;;4976515;28;20008;-75
2023/11/14 17:57:28;;;;;;;5.27;2.80;;;;;;;;;;5010621;28;20011;-75
2023/11/14 17:59:57;;;;;;;7.07;3.00;;;;;;;;;;4980094;28;20031;-78
2023/11/14 18:02:25;;;;;;;9.87;3.37;;;;;;;;;;4975827;28;20026;-77
2023/11/14 18:04:51;;;;;;;6.67;2.57;;;;;;;;;;4979723;28;20034;-77
2023/11/14 18:07:19;;;;;;;4.47;2.47;;;;;;;;;;4978769;28;20015;-77
2023/11/14 18:09:47;;;;;;;7.10;2.20;;;;;;;;;;5011091;28;20036;-76
2023/11/14 18:12:13;;;;;;;5.30;2.50;;;;;;;;;;5006962;28;20035;-77
2023/11/14 18:14:44;;;;;;;8.50;2.70;;;;;;;;;;4984927;28;20089;-77
2023/11/14 18:17:16;;;;;;;6.38;2.08;;;;;;;;;;4978369;28;20031;-78
2023/11/14 18:19:45;;;;;;;4.60;1.60;;;;;;;;;;5006527;28;20020;-75
2023/11/14 18:22:11;;;;;;;6.47;2.20;;;;;;;;;;5006998;28;20266;-79
2023/11/14 18:27:25;;;;;;;11.13;2.37;;;;;;;;;;4974432;28;20039;-76
2023/11/14 18:29:54;;;;;;;3.77;1.37;;;;;;;;;;4974407;28;20027;-77
2023/11/14 18:32:20;;;;;;;7.43;1.77;;;;;;;;;;5005281;28;20031;-78
2023/11/14 18:34:59;;;;;;;9.97;1.70;;;;;;;;;;4973650;28;20032;-77
2023/11/14 18:37:28;;;;;;;5.47;1.70;;;;;;;;;;5004422;28;20213;-76
2023/11/14 18:39:54;;;;;;;8.77;1.60;;;;;;;;;;5005145;28;20023;-76
2023/11/14 18:42:22;;;;;;;3.80;1.63;;;;;;;;;;4988547;28;20027;-77
2023/11/14 18:44:52;;;;;;;6.23;1.50;;;;;;;;;;4974539;28;20063;-77
2023/11/14 18:47:18;;;;;;;7.27;1.30;;;;;;;;;;5006268;28;20091;-76
2023/11/14 18:49:50;;;;;;;5.93;1.10;;;;;;;;;;5004896;28;20036;-77
2023/11/14 18:52:18;;;;;;;7.13;1.27;;;;;;;;;;4973897;28;20039;-77
2023/11/14 18:54:47;;;;;;;22.73;2.00;;;;;;;;;;5005628;28;20046;-76
2023/11/14 18:57:20;;;;;;;2.67;0.80;;;;;;;;;;5004923;28;20039;-78
2023/11/14 18:59:49;;;;;;;4.93;0.90;;;;;;;;;;5006764;28;20067;-76
2023/11/14 19:02:16;;;;;;;2.63;0.60;;;;;;;;;;4969423;28;20067;-74
2023/11/14 19:04:53;;;;;;;0.30;0.20;;;;;;;;;;4973102;28;20044;-76
2023/11/14 19:07:32;;;;;;;2.30;0.23;;;;;;;;;;5145489;23;20052;-77
2023/11/14 19:10:08;;;;;;;;;;;;;;;;;;;;;
2023/11/14 19:12:42;;;;;;;0.50;0.20;;;;;;;;;;4967926;28;20043;-77
2023/11/14 19:15:08;;;;;;;0.93;0.23;;;;;;;;;;4964298;28;20023;-79
2023/11/14 19:17:35;;;;;;;2.00;0.30;;;;;;;;;;4970862;28;20031;-75
2023/11/14 19:20:04;;;;;;;1.23;0.40;;;;;;;;;;4976021;28;20038;-75
2023/11/14 19:22:30;;;;;;;1.57;0.37;;;;;;;;;;4973762;28;20012;-77
2023/11/14 19:25:03;;;;;;;0.83;0.37;;;;;;;;;;4974313;28;20059;-77
2023/11/14 19:27:30;;;;;;;0.70;0.70;;;;;;;;;;4975714;28;20020;-75
2023/11/14 19:30:14;;;;;;;4.63;1.20;;;;;;;;;;4984997;28;20032;-75
2023/11/14 19:32:41;;;;;;;1.07;0.60;;;;;;;;;;4976212;28;20027;-76
2023/11/14 19:35:10;;;;;;;3.20;0.83;;;;;;;;;;4976323;28;20031;-77
2023/11/14 19:37:36;;;;;;;1.93;0.97;;;;;;;;;;4987741;28;20039;-76
2023/11/14 19:40:05;;;;;;;3.73;1.40;;;;;;;;;;4971996;28;20023;-78
2023/11/14 19:42:35;;;;;;;5.77;1.53;;;;;;;;;;4958884;28;20082;-77
2023/11/14 19:45:01;;;;;;;3.70;1.70;;;9.50;99.90;;;;;;4958976;28;20055;-77
2023/11/14 19:47:36;;;;;;;5.43;1.83;;;9.40;99.90;;;;;;4959471;28;20068;-75
2023/11/14 19:50:09;;;;;;;5.10;1.80;;;9.50;99.90;;;;;;4969312;28;20047;-78
2023/11/14 19:52:34;;;;;;;3.30;2.10;;;9.40;99.90;;;;;;4967703;28;20027;-76
2023/11/14 19:55:00;;;;;;;3.63;1.53;;;9.40;99.90;;;;;;4971665;28;20063;-75
2023/11/14 19:57:26;;;;;;;4.57;1.20;;;9.50;99.90;;;;;;4971730;28;20035;-76
2023/11/14 20:00:02;;;;;;;5.47;1.27;;;9.40;99.90;;;;;;4971321;28;20043;-75
2023/11/14 20:02:35;;;;;;;5.10;1.27;;;9.30;99.90;;;;;;4974761;28;20011;-75
2023/11/14 20:05:01;;;;;;;5.63;1.57;;;9.30;99.90;;;;;;4960867;28;20054;-77
2023/11/14 20:07:27;;;;;;;2.40;1.30;;;9.30;99.90;;;;;;4956898;28;20099;-76
2023/11/14 20:10:13;;;;;;;7.37;2.37;;;9.20;99.90;;;;;;4957695;28;20095;-75
2023/11/14 20:12:39;;;;;;;3.57;2.23;;;9.10;99.90;;;;;;4972380;28;20149;-76
2023/11/14 20:15:07;;;;;;;4.33;2.43;;;9.00;99.90;;;;;;4971558;28;20108;-75
2023/11/14 20:17:40;;;;;;;7.37;3.13;;;9.00;99.90;;;;;;4971494;28;20019;-75
2023/11/14 20:20:11;;;;;;;5.80;2.50;;;9.20;99.90;;;;;;4971381;28;20028;-75
2023/11/14 20:22:37;;;;;;;4.97;2.93;;;9.20;99.90;;;;;;4973895;28;20030;-76
2023/11/14 20:25:13;;;;;;;4.53;2.73;;;9.10;99.90;;;;;;4973604;28;20099;-76
2023/11/14 20:27:47;;;;;;;8.00;3.97;;;9.10;99.90;;;;;;4971687;28;20046;-75